createdAt,value
2023-10-01T00:00:30.478Z,101222.16
2023-10-01T00:03:33.371Z,101217.84
2023-10-01T00:06:37.196Z,101212.38
2023-10-01T00:09:39.911Z,101216.69
2023-10-01T00:12:47.893Z,101210.37
2023-10-01T00:15:51.008Z,101205.41
2023-10-01T00:18:55.617Z,101209.53
2023-10-01T00:21:59.030Z,101207.19
2023-10-01T00:25:01.863Z,101214.62
2023-10-01T00:28:06.209Z,101211.28
2023-10-01T00:31:09.218Z,101209.47
2023-10-01T00:34:12.387Z,101213.75
2023-10-01T00:37:15.319Z,101208.44
2023-10-01T00:40:19.220Z,101209.41
2023-10-01T00:43:31.463Z,101216.00
2023-10-01T00:46:35.506Z,101203.75
2023-10-01T00:49:48.114Z,101208.66
2023-10-01T00:52:53.293Z,101205.19
2023-10-01T00:55:56.564Z,101212.06
2023-10-01T00:58:59.471Z,101218.09
2023-10-01T01:02:07.564Z,101216.25
2023-10-01T01:05:24.827Z,101218.72
2023-10-01T01:08:48.346Z,101216.56
2023-10-01T01:11:51.754Z,101219.87
2023-10-01T01:14:56.369Z,101219.72
2023-10-01T01:18:01.441Z,101225.81
2023-10-01T01:21:11.318Z,101219.03
2023-10-01T01:24:15.204Z,101219.19
2023-10-01T01:27:18.925Z,101216.72
2023-10-01T01:30:27.921Z,101223.03
2023-10-01T01:33:34.921Z,101218.88
2023-10-01T01:36:38.548Z,101231.25
2023-10-01T01:39:52.944Z,101220.63
2023-10-01T01:42:57.778Z,101221.91
2023-10-01T01:46:04.966Z,101219.13
2023-10-01T01:49:11.342Z,101228.50
2023-10-01T01:52:14.147Z,101227.47
2023-10-01T01:55:24.823Z,101229.87
2023-10-01T01:58:27.969Z,101223.56
2023-10-01T02:01:31.421Z,101218.59
2023-10-01T02:04:34.310Z,101215.69
2023-10-01T02:07:37.082Z,101219.53
2023-10-01T02:10:48.524Z,101213.22
2023-10-01T02:13:53.122Z,101212.06
2023-10-01T02:17:17.992Z,101216.87
2023-10-01T02:20:28.482Z,101207.63
2023-10-01T02:23:34.643Z,101204.94
2023-10-01T02:26:38.227Z,101213.53
2023-10-01T02:29:47.713Z,101210.41
2023-10-01T02:33:13.205Z,101203.00
2023-10-01T02:36:19.729Z,101204.00
2023-10-01T02:39:29.063Z,101202.19
2023-10-01T02:42:32.866Z,101207.09
2023-10-01T02:45:37.337Z,101209.91
2023-10-01T02:48:42.302Z,101206.28
2023-10-01T02:51:50.900Z,101215.19
2023-10-01T02:54:59.174Z,101188.88
2023-10-01T02:58:19.454Z,101195.00
2023-10-01T03:01:22.710Z,101196.81
2023-10-01T03:04:29.122Z,101204.03
2023-10-01T03:07:38.162Z,101201.56
2023-10-01T03:10:41.066Z,101194.53
2023-10-01T03:13:48.177Z,101198.63
2023-10-01T03:16:55.443Z,101204.34
2023-10-01T03:20:12.986Z,101196.75
2023-10-01T03:23:22.473Z,101198.03
2023-10-01T03:26:27.549Z,101196.22
2023-10-01T03:29:36.101Z,101201.09
2023-10-01T03:32:42.049Z,101199.59
2023-10-01T03:35:49.483Z,101175.94
2023-10-01T03:38:59.469Z,101192.13
2023-10-01T03:42:16.625Z,101202.53
2023-10-01T03:45:27.718Z,101195.91
2023-10-01T03:48:43.633Z,101199.37
2023-10-01T03:51:59.950Z,101198.53
2023-10-01T03:55:16.859Z,101202.84
2023-10-01T03:58:19.932Z,101207.81
2023-10-01T04:01:56.831Z,101203.66
2023-10-01T04:05:06.677Z,101207.44
2023-10-01T04:08:11.553Z,101204.78
2023-10-01T04:11:14.592Z,101206.16
2023-10-01T04:14:19.248Z,101207.13
2023-10-01T04:17:22.361Z,101211.03
2023-10-01T04:20:29.849Z,101209.69
2023-10-01T04:23:49.049Z,101215.56
2023-10-01T04:26:51.980Z,101222.94
2023-10-01T04:30:01.665Z,101219.38
2023-10-01T04:33:21.311Z,101222.31
2023-10-01T04:36:24.118Z,101221.94
2023-10-01T04:39:26.898Z,101224.19
2023-10-01T04:42:29.720Z,101223.50
2023-10-01T04:45:38.262Z,101224.94
2023-10-01T04:48:41.150Z,101230.19
2023-10-01T04:51:46.776Z,101227.31
2023-10-01T04:54:52.858Z,101232.44
2023-10-01T04:57:58.945Z,101243.97
2023-10-01T05:01:04.417Z,101246.59
2023-10-01T05:04:10.567Z,101251.88
2023-10-01T05:07:16.518Z,101258.94
2023-10-01T05:10:22.209Z,101261.44
2023-10-01T05:13:25.299Z,101266.88
2023-10-01T05:16:28.314Z,101260.22
2023-10-01T05:19:31.308Z,101258.81
2023-10-01T05:22:48.204Z,101267.25
2023-10-01T05:25:52.060Z,101264.63
2023-10-01T05:28:55.988Z,101263.19
2023-10-01T05:31:58.933Z,101265.25
2023-10-01T05:35:16.652Z,101272.03
2023-10-01T05:38:20.618Z,101265.34
2023-10-01T05:41:34.102Z,101266.53
2023-10-01T05:44:37.061Z,101265.94
2023-10-01T05:47:56.486Z,101263.44
2023-10-01T05:51:03.346Z,101256.28
2023-10-01T05:54:06.232Z,101260.53
2023-10-01T05:57:11.976Z,101253.50
2023-10-01T06:00:27.781Z,101256.94
2023-10-01T06:03:32.532Z,101249.75
2023-10-01T06:06:37.776Z,101261.88
2023-10-01T06:09:43.260Z,101268.19
2023-10-01T06:12:52.179Z,101269.91
2023-10-01T06:15:57.688Z,101269.97
2023-10-01T06:19:01.603Z,101271.56
2023-10-01T06:22:14.052Z,101281.72
2023-10-01T06:25:41.853Z,101290.34
2023-10-01T06:28:45.493Z,101293.56
2023-10-01T06:32:03.592Z,101298.97
2023-10-01T06:35:06.918Z,101306.12
2023-10-01T06:38:15.356Z,101313.56
2023-10-01T06:41:27.591Z,101311.13
2023-10-01T06:44:30.371Z,101308.16
2023-10-01T06:47:34.189Z,101314.69
2023-10-01T06:50:42.764Z,101320.34
2023-10-01T06:53:48.774Z,101313.88
2023-10-01T06:56:52.267Z,101304.97
2023-10-01T07:00:00.396Z,101311.06
2023-10-01T07:03:20.012Z,101316.34
2023-10-01T07:06:23.477Z,101315.69
2023-10-01T07:09:26.564Z,101317.47
2023-10-01T07:12:30.665Z,101311.31
2023-10-01T07:15:41.842Z,101326.03
2023-10-01T07:18:49.048Z,101318.28
2023-10-01T07:21:58.545Z,101323.19
2023-10-01T07:25:27.268Z,101319.75
2023-10-01T07:28:31.979Z,101318.91
2023-10-01T07:31:38.153Z,101317.03
2023-10-01T07:34:41.746Z,101316.25
2023-10-01T07:37:44.638Z,101320.47
2023-10-01T07:40:59.757Z,101319.16
2023-10-01T07:44:09.561Z,101326.69
2023-10-01T07:47:29.790Z,101333.13
2023-10-01T07:50:32.884Z,101337.50
2023-10-01T07:53:35.728Z,101336.56
2023-10-01T07:56:41.148Z,101337.16
2023-10-01T07:59:44.802Z,101356.50
2023-10-01T08:03:06.938Z,101349.47
2023-10-01T08:06:14.043Z,101352.44
2023-10-01T08:09:16.803Z,101345.25
2023-10-01T08:12:21.291Z,101344.47
2023-10-01T08:15:51.946Z,101347.78
2023-10-01T08:19:00.209Z,101347.38
2023-10-01T08:22:15.217Z,101352.16
2023-10-01T08:25:20.933Z,101344.00
2023-10-01T08:28:27.050Z,101342.75
2023-10-01T08:31:48.405Z,101340.62
2023-10-01T08:35:03.205Z,101342.19
2023-10-01T08:38:16.999Z,101344.12
2023-10-01T08:41:35.050Z,101341.91
2023-10-01T08:44:47.542Z,101350.75
2023-10-01T08:47:51.423Z,101353.28
2023-10-01T08:50:54.673Z,101352.03
2023-10-01T08:53:57.960Z,101349.13
2023-10-01T08:57:01.155Z,101357.22
2023-10-01T09:00:21.925Z,101350.22
2023-10-01T09:03:36.235Z,101341.16
2023-10-01T09:07:01.054Z,101347.97
2023-10-01T09:10:08.759Z,101345.87
2023-10-01T09:13:22.531Z,101346.28
2023-10-01T09:16:35.667Z,101347.94
2023-10-01T09:19:52.148Z,101346.00
2023-10-01T09:23:00.945Z,101352.91
2023-10-01T09:26:03.931Z,101340.84
2023-10-01T09:29:22.597Z,101348.72
2023-10-01T09:32:53.561Z,101344.75
2023-10-01T09:36:01.078Z,101347.81
2023-10-01T09:39:08.122Z,101337.75
2023-10-01T09:42:26.445Z,101336.59
2023-10-01T09:45:35.976Z,101342.13
2023-10-01T09:48:50.147Z,101339.09
2023-10-01T09:51:55.042Z,101340.25
2023-10-01T09:55:08.844Z,101338.37
2023-10-01T09:58:12.724Z,101331.84
2023-10-01T10:01:19.606Z,101328.25
2023-10-01T10:04:22.728Z,101323.69
2023-10-01T10:07:26.617Z,101329.38
2023-10-01T10:10:29.831Z,101328.19
2023-10-01T10:13:39.316Z,101329.28
2023-10-01T10:17:09.147Z,101327.53
2023-10-01T10:20:27.032Z,101341.31
2023-10-01T10:23:57.033Z,101339.03
2023-10-01T10:27:10.457Z,101337.16
2023-10-01T10:30:18.155Z,101334.63
2023-10-01T10:33:31.814Z,101330.06
2023-10-01T10:36:54.120Z,101337.34
2023-10-01T10:40:04.294Z,101335.78
2023-10-01T10:43:18.476Z,101332.16
2023-10-01T10:46:24.697Z,101320.91
2023-10-01T10:49:53.025Z,101317.38
2023-10-01T10:53:00.376Z,101314.44
2023-10-01T10:56:10.350Z,101321.25
2023-10-01T10:59:18.401Z,101312.72
2023-10-01T11:02:22.231Z,101302.03
2023-10-01T11:05:32.423Z,101306.19
2023-10-01T11:08:38.837Z,101308.66
2023-10-01T11:11:47.312Z,101304.28
2023-10-01T11:15:19.891Z,101302.75
2023-10-01T11:18:29.368Z,101299.47
2023-10-01T11:21:36.357Z,101292.00
2023-10-01T11:24:44.647Z,101287.50
2023-10-01T11:27:56.428Z,101282.19
2023-10-01T11:31:00.257Z,101284.91
2023-10-01T11:34:23.504Z,101279.44
2023-10-01T11:37:29.389Z,101276.88
2023-10-01T11:40:50.804Z,101279.16
2023-10-01T11:44:03.501Z,101265.81
2023-10-01T11:47:06.491Z,101262.78
2023-10-01T11:50:09.497Z,101258.56
2023-10-01T11:53:16.947Z,101266.78
2023-10-01T11:56:20.544Z,101247.37
2023-10-01T11:59:24.429Z,101257.16
2023-10-01T12:02:45.791Z,101252.41
2023-10-01T12:05:49.919Z,101248.84
2023-10-01T12:08:54.858Z,101243.47
2023-10-01T12:12:07.656Z,101240.19
2023-10-01T12:15:30.101Z,101236.34
2023-10-01T12:18:45.658Z,101232.72
2023-10-01T12:21:50.101Z,101238.38
2023-10-01T12:24:59.757Z,101233.53
2023-10-01T12:28:16.658Z,101225.06
2023-10-01T12:31:24.913Z,101224.91
2023-10-01T12:34:27.822Z,101219.00
2023-10-01T12:37:41.300Z,101230.44
2023-10-01T12:40:57.050Z,101215.69
2023-10-01T12:44:19.769Z,101217.19
2023-10-01T12:47:42.143Z,101214.84
2023-10-01T12:51:01.464Z,101220.50
2023-10-01T12:54:08.633Z,101208.41
2023-10-01T12:57:19.703Z,101196.94
2023-10-01T13:00:26.143Z,101205.94
2023-10-01T13:03:30.697Z,101206.56
2023-10-01T13:06:33.519Z,101206.34
2023-10-01T13:09:42.143Z,101193.63
2023-10-01T13:12:57.706Z,101193.03
2023-10-01T13:16:02.300Z,101194.75
2023-10-01T13:19:19.241Z,101184.97
2023-10-01T13:22:22.083Z,101178.38
2023-10-01T13:25:25.464Z,101173.03
2023-10-01T13:28:47.426Z,101174.47
2023-10-01T13:32:03.814Z,101165.41
2023-10-01T13:35:26.883Z,101162.06
2023-10-01T13:38:33.077Z,101148.72
2023-10-01T13:41:35.802Z,101161.00
2023-10-01T13:44:57.477Z,101152.78
2023-10-01T13:48:18.576Z,101145.31
2023-10-01T13:51:39.771Z,101141.38
2023-10-01T13:55:01.563Z,101135.25
2023-10-01T13:58:36.507Z,101137.12
2023-10-01T14:02:00.835Z,101128.28
2023-10-01T14:05:23.348Z,101127.63
2023-10-01T14:08:47.309Z,101131.22
2023-10-01T14:11:55.926Z,101128.41
2023-10-01T14:14:58.580Z,101127.63
2023-10-01T14:18:10.211Z,101130.84
2023-10-01T14:21:17.909Z,101118.59
2023-10-01T14:24:23.379Z,101125.03
2023-10-01T14:27:26.304Z,101120.53
2023-10-01T14:30:29.355Z,101116.81
2023-10-01T14:33:33.682Z,101111.37
2023-10-01T14:36:42.998Z,101109.28
2023-10-01T14:39:49.173Z,101109.78
2023-10-01T14:43:01.774Z,101105.44
2023-10-01T14:46:05.089Z,101109.88
2023-10-01T14:49:07.931Z,101110.72
2023-10-01T14:52:24.402Z,101102.00
2023-10-01T14:55:28.863Z,101095.22
2023-10-01T14:58:34.782Z,101092.50
2023-10-01T15:01:42.265Z,101096.84
2023-10-01T15:04:45.092Z,101092.50
2023-10-01T15:07:47.869Z,101095.22
2023-10-01T15:10:51.387Z,101097.94
2023-10-01T15:13:55.853Z,101087.09
2023-10-01T15:17:10.442Z,101087.34
2023-10-01T15:20:29.825Z,101080.56
2023-10-01T15:23:33.285Z,101088.19
2023-10-01T15:26:45.216Z,101081.34
2023-10-01T15:29:54.967Z,101080.75
2023-10-01T15:33:11.135Z,101083.56
2023-10-01T15:36:16.670Z,101087.81
2023-10-01T15:39:29.316Z,101086.22
2023-10-01T15:42:37.399Z,101096.72
2023-10-01T15:45:45.533Z,101088.22
2023-10-01T15:48:51.156Z,101095.97
2023-10-01T15:51:53.967Z,101095.97
2023-10-01T15:54:59.649Z,101095.00
2023-10-01T15:58:03.957Z,101097.56
2023-10-01T16:01:06.782Z,101098.53
2023-10-01T16:04:16.047Z,101088.94
2023-10-01T16:07:19.255Z,101086.44
2023-10-01T16:10:22.024Z,101094.53
2023-10-01T16:13:31.466Z,101090.13
2023-10-01T16:16:34.516Z,101096.66
2023-10-01T16:19:37.581Z,101093.53
2023-10-01T16:22:41.136Z,101092.47
2023-10-01T16:25:47.238Z,101087.81
2023-10-01T16:28:55.022Z,101097.53
2023-10-01T16:31:58.962Z,101095.50
2023-10-01T16:35:01.902Z,101095.69
2023-10-01T16:38:05.117Z,101091.94
2023-10-01T16:41:18.074Z,101095.97
2023-10-01T16:44:20.900Z,101098.37
2023-10-01T16:47:32.299Z,101103.19
2023-10-01T16:51:10.648Z,101103.91
2023-10-01T16:54:17.771Z,101103.94
2023-10-01T16:57:26.824Z,101097.75
2023-10-01T17:00:39.211Z,101107.78
2023-10-01T17:03:58.272Z,101103.53
2023-10-01T17:07:15.683Z,101111.59
2023-10-01T17:10:18.811Z,101107.81
2023-10-01T17:13:22.203Z,101114.50
2023-10-01T17:16:27.066Z,101122.38
2023-10-01T17:19:30.802Z,101118.72
2023-10-01T17:22:34.542Z,101132.47
2023-10-01T17:25:38.833Z,101124.25
2023-10-01T17:28:51.619Z,101125.34
2023-10-01T17:32:09.213Z,101121.34
2023-10-01T17:35:19.346Z,101125.06
2023-10-01T17:38:26.702Z,101125.53
2023-10-01T17:41:35.940Z,101115.22
2023-10-01T17:44:44.847Z,101119.31
2023-10-01T17:47:50.596Z,101122.38
2023-10-01T17:50:53.673Z,101123.47
2023-10-01T17:54:06.862Z,101123.88
2023-10-01T17:57:11.735Z,101130.44
2023-10-01T18:00:17.353Z,101128.81
2023-10-01T18:03:28.908Z,101133.34
2023-10-01T18:06:40.408Z,101131.75
2023-10-01T18:09:47.243Z,101131.81
2023-10-01T18:12:53.268Z,101132.34
2023-10-01T18:15:57.716Z,101141.87
2023-10-01T18:19:08.493Z,101145.34
2023-10-01T18:22:16.044Z,101138.87
2023-10-01T18:25:19.244Z,101139.09
2023-10-01T18:28:29.149Z,101149.56
2023-10-01T18:31:32.122Z,101155.84
2023-10-01T18:34:34.959Z,101158.38
2023-10-01T18:37:37.735Z,101163.34
2023-10-01T18:40:42.091Z,101165.50
2023-10-01T18:43:45.941Z,101164.84
2023-10-01T18:46:49.073Z,101171.16
2023-10-01T18:49:52.245Z,101174.81
2023-10-01T18:52:56.208Z,101166.06
2023-10-01T18:55:59.623Z,101166.41
2023-10-01T18:59:02.752Z,101169.69
2023-10-01T19:02:07.487Z,101176.66
2023-10-01T19:05:16.900Z,101180.78
2023-10-01T19:08:20.053Z,101174.34
2023-10-01T19:11:30.993Z,101167.22
2023-10-01T19:14:34.177Z,101166.88
2023-10-01T19:17:37.444Z,101169.53
2023-10-01T19:20:41.123Z,101173.16
2023-10-01T19:23:44.216Z,101159.44
2023-10-01T19:26:49.038Z,101167.84
2023-10-01T19:29:51.994Z,101172.91
2023-10-01T19:32:59.592Z,101181.19
2023-10-01T19:36:03.799Z,101183.31
2023-10-01T19:39:07.787Z,101182.00
2023-10-01T19:42:13.457Z,101180.50
2023-10-01T19:45:27.962Z,101179.50
2023-10-01T19:48:30.786Z,101189.41
2023-10-01T19:51:42.015Z,101182.78
2023-10-01T19:54:45.499Z,101179.63
2023-10-01T19:57:48.177Z,101181.09
2023-10-01T20:00:51.429Z,101178.75
2023-10-01T20:04:08.294Z,101187.16
2023-10-01T20:07:11.317Z,101191.78
2023-10-01T20:10:14.778Z,101185.00
2023-10-01T20:13:17.551Z,101189.25
2023-10-01T20:16:23.539Z,101184.44
2023-10-01T20:19:26.284Z,101188.25
2023-10-01T20:22:29.006Z,101186.06
2023-10-01T20:25:33.235Z,101179.44
2023-10-01T20:28:37.122Z,101182.59
2023-10-01T20:31:41.050Z,101181.47
2023-10-01T20:34:44.226Z,101185.75
2023-10-01T20:37:48.496Z,101182.78
2023-10-01T20:40:55.788Z,101180.00
2023-10-01T20:44:00.044Z,101181.66
2023-10-01T20:47:03.790Z,101184.28
2023-10-01T20:50:08.936Z,101183.00
2023-10-01T20:53:11.852Z,101184.12
2023-10-01T20:56:41.944Z,101182.81
2023-10-01T20:59:45.178Z,101186.81
2023-10-01T21:02:59.391Z,101174.09
2023-10-01T21:06:05.778Z,101174.78
2023-10-01T21:09:20.198Z,101180.41
2023-10-01T21:12:31.925Z,101184.91
2023-10-01T21:15:34.841Z,101175.16
2023-10-01T21:18:38.337Z,101177.66
2023-10-01T21:21:44.215Z,101174.84
2023-10-01T21:24:47.200Z,101167.09
2023-10-01T21:28:12.651Z,101164.28
2023-10-01T21:31:21.692Z,101168.06
2023-10-01T21:34:25.357Z,101165.94
2023-10-01T21:37:30.449Z,101170.41
2023-10-01T21:40:33.349Z,101170.59
2023-10-01T21:43:36.086Z,101166.63
2023-10-01T21:46:42.113Z,101165.16
2023-10-01T21:49:51.955Z,101166.47
2023-10-01T21:52:58.962Z,101166.19
2023-10-01T21:56:06.249Z,101170.16
2023-10-01T21:59:14.821Z,101167.88
2023-10-01T22:02:20.258Z,101175.81
2023-10-01T22:05:23.491Z,101171.19
2023-10-01T22:08:29.645Z,101168.53
2023-10-01T22:11:35.155Z,101161.59
2023-10-01T22:14:43.761Z,101160.94
2023-10-01T22:17:46.731Z,101156.94
2023-10-01T22:20:54.493Z,101154.25
2023-10-01T22:23:57.630Z,101153.75
2023-10-01T22:27:00.869Z,101152.91
2023-10-01T22:30:16.519Z,101152.72
2023-10-01T22:33:19.838Z,101161.31
2023-10-01T22:36:34.142Z,101151.53
2023-10-01T22:39:37.929Z,101159.78
2023-10-01T22:42:43.000Z,101161.91
2023-10-01T22:45:58.090Z,101159.22
2023-10-01T22:49:01.487Z,101157.38
2023-10-01T22:52:08.957Z,101156.22
2023-10-01T22:55:12.260Z,101156.84
2023-10-01T22:58:27.036Z,101157.62
2023-10-01T23:01:29.892Z,101160.59
2023-10-01T23:04:33.109Z,101160.69
2023-10-01T23:07:36.305Z,101156.88
2023-10-01T23:10:41.360Z,101164.44
2023-10-01T23:13:55.827Z,101160.91
2023-10-01T23:16:59.084Z,101165.69
2023-10-01T23:20:05.534Z,101170.75
2023-10-01T23:23:08.336Z,101166.63
2023-10-01T23:26:28.168Z,101170.56
2023-10-01T23:29:31.244Z,101162.13
2023-10-01T23:32:36.989Z,101147.41
2023-10-01T23:35:59.632Z,101149.22
2023-10-01T23:39:06.673Z,101163.41
2023-10-01T23:42:09.893Z,101159.37
2023-10-01T23:45:17.895Z,101155.09
2023-10-01T23:48:23.254Z,101156.03
2023-10-01T23:51:40.941Z,101160.47
2023-10-01T23:54:50.793Z,101157.16
2023-10-01T23:58:22.249Z,101151.06
